Beihai, China
Current Conditions -  °F | °C
As of 8:00 AM on Monday 24 Nov 2014 (Local Time) from ZGNN Reporting Station
Haze Haze  
Wind Chill: 70°   Ceiling: Unl
Heat Index: 70°   Visibility: 2mi
Dew Point: 70°   Wind: 2mph
Humidity: 100%   Direction: NA
Pressure: 30"   Gusts: NA
Location:  21.48°N, 109.1°E
Report Text: ZGNN 240000Z VRB01MPS 3200 BR SCT007 21/21 Q1016 NOSIG
Loading
Personal Weather Stations






























Interactive Weather Map New forecast layout! Learn more

10-Day Weather Forecast

Advertisements
Track Severe Weather on mobile